Hyvinkään lentokentän sää

Sää nyt

Mitattu 29.5. 19:10
24.3°, kosteus 52% (15°)
Aurinko: 04:07 - 22:29



Lähialueen METARit

METAR EFHK 291520Z 14010KT CAVOK 23/14 Q1013 TEMPO FEW060CB=

METAR EFTU 291520Z AUTO 25005KT 210V290 9999 //////CB 25/10 Q1012=

METAR EFTP 291520Z AUTO 23006KT 190V280 CAVOK 26/08 Q1012=

Sää lentopaikoilla (fmi)

Tunnin tuulihistoria

Sääennuste

KelloTHum, DpTuuli (kt)Pilvet
29.05.
19:0018°91%, 16°40° 2(15)0/8
21:0016°87%, 14°45° 2(10)0/8
23:0016°87%, 13°135° 5(9)0/8
30.05.
02:0015°96%, 14°50° 2(5)0/8
05:0015°93%, 13°55° 0(3)0/8
08:0018°77%, 13°100° 3(7)0/8
11:0022°59%, 10°145° 3(10)0/8
14:0022°60%, 11°135° 4(11)6/8
17:0023°61%, 12°160° 3(11)0/8
20:0023°57%, 11°70° 4(9)0/8
23:0019°82%, 15°45° 3(7)4/8
31.05.
03:0016°95%, 16°75° 2(8)0/8
07:0018°88%, 15°70° 4(8)0/8
11:0024°55%, 11°75° 5(12)0/8
15:0027°40%, 8°150° 3(12)0/8
19:0026°47%, 10°150° 4(13)0/8

Tietoja kentästä